KBFL/BFL METAR and TAF weather

Enter ICAO airport designator
Station Type Date Time Source
KBFL METAR 2019/12/14 10:54 UTC NOAA

KBFL 141054Z AUTO 01005KT 6SM HZ OVC050 13/10 A3003 RMK AO2 SLP167 T01330100


Station Type Date Time Source
KBFL Decoded METAR 2019/12/14 10:54 UTC NOAA

BAKERSFIELD MEADOWS FIELD, CA, United States (KBFL) 35-26N 119-03W 151M
Dec 14, 2019 - 05:54 AM EST / 2019.12.14 1054 UTC
Wind: from the N (010 degrees) at 6 MPH (5 KT):0
Visibility: 6 mile(s):0
Sky conditions: overcast
Weather: haze
Temperature: 55.9 F (13.3 C)
Dew Point: 50.0 F (10.0 C)
Relative Humidity: 80%
Pressure (altimeter): 30.03 in. Hg (1016 hPa)
ob: KBFL 141054Z AUTO 01005KT 6SM HZ OVC050 13/10 A3003 RMK AO2 SLP167 T01330100
cycle: 11

Station Type Date Time Source
KBFL TAF 2019/12/14 12:22 UTC NOAA

TAF KBFL 141120Z 1412/1512 VRB04KT 6SM HZ OVC050
FM141300 31006KT 3SM BR SCT005
FM142000 31012KT P6SM BKN050
FM150000 33010KT P6SM OVC100
FM151000 31007KT 4SM BR SCT250

Example: see airport list